sensor_id;sensor_type;location;lat;lon;timestamp;temperature;humidity
49124;DHT22;48506;48.202;16.274;2023-05-10T00:01:39;12.50;85.30
49124;DHT22;48506;48.202;16.274;2023-05-10T00:04:05;12.50;85.20
49124;DHT22;48506;48.202;16.274;2023-05-10T00:06:30;12.50;85.30
49124;DHT22;48506;48.202;16.274;2023-05-10T00:08:57;12.50;85.50
49124;DHT22;48506;48.202;16.274;2023-05-10T00:11:23;12.40;85.70
49124;DHT22;48506;48.202;16.274;2023-05-10T00:13:49;12.30;85.70
49124;DHT22;48506;48.202;16.274;2023-05-10T00:16:15;12.30;85.90
49124;DHT22;48506;48.202;16.274;2023-05-10T00:18:41;12.40;86.00
49124;DHT22;48506;48.202;16.274;2023-05-10T00:21:07;12.30;86.10
49124;DHT22;48506;48.202;16.274;2023-05-10T00:23:33;12.30;86.20
49124;DHT22;48506;48.202;16.274;2023-05-10T00:25:59;12.30;86.00
49124;DHT22;48506;48.202;16.274;2023-05-10T00:28:25;12.30;86.20
49124;DHT22;48506;48.202;16.274;2023-05-10T00:30:52;12.20;86.70
49124;DHT22;48506;48.202;16.274;2023-05-10T00:33:18;12.20;86.70
49124;DHT22;48506;48.202;16.274;2023-05-10T00:35:44;12.20;86.70
49124;DHT22;48506;48.202;16.274;2023-05-10T00:38:10;12.20;87.00
49124;DHT22;48506;48.202;16.274;2023-05-10T00:40:36;12.20;87.10
49124;DHT22;48506;48.202;16.274;2023-05-10T00:43:05;12.20;87.20
49124;DHT22;48506;48.202;16.274;2023-05-10T00:45:36;12.10;87.60
49124;DHT22;48506;48.202;16.274;2023-05-10T00:48:03;12.10;87.70
49124;DHT22;48506;48.202;16.274;2023-05-10T00:50:30;12.10;87.70
49124;DHT22;48506;48.202;16.274;2023-05-10T00:52:59;12.10;88.10
49124;DHT22;48506;48.202;16.274;2023-05-10T00:55:26;12.10;88.10
49124;DHT22;48506;48.202;16.274;2023-05-10T00:57:53;12.00;88.30
49124;DHT22;48506;48.202;16.274;2023-05-10T01:00:19;12.00;88.50
49124;DHT22;48506;48.202;16.274;2023-05-10T01:02:46;12.00;88.60
49124;DHT22;48506;48.202;16.274;2023-05-10T01:05:15;12.00;88.80
49124;DHT22;48506;48.202;16.274;2023-05-10T01:07:41;11.90;88.80
49124;DHT22;48506;48.202;16.274;2023-05-10T01:10:08;11.90;88.80
49124;DHT22;48506;48.202;16.274;2023-05-10T01:12:38;11.90;89.20
49124;DHT22;48506;48.202;16.274;2023-05-10T01:15:07;11.80;89.40
49124;DHT22;48506;48.202;16.274;2023-05-10T01:17:35;11.80;89.40
49124;DHT22;48506;48.202;16.274;2023-05-10T01:20:02;11.80;89.60
49124;DHT22;48506;48.202;16.274;2023-05-10T01:33:30;11.60;90.20
49124;DHT22;48506;48.202;16.274;2023-05-10T01:36:15;11.60;90.20
49124;DHT22;48506;48.202;16.274;2023-05-10T01:38:51;11.50;90.30
49124;DHT22;48506;48.202;16.274;2023-05-10T01:44:18;11.50;90.50
49124;DHT22;48506;48.202;16.274;2023-05-10T01:46:53;11.40;90.60
49124;DHT22;48506;48.202;16.274;2023-05-10T01:49:26;11.40;90.70
49124;DHT22;48506;48.202;16.274;2023-05-10T01:52:00;11.30;90.90
49124;DHT22;48506;48.202;16.274;2023-05-10T01:54:30;11.30;91.00
49124;DHT22;48506;48.202;16.274;2023-05-10T01:57:02;11.30;91.20
49124;DHT22;48506;48.202;16.274;2023-05-10T01:59:31;11.30;91.20
49124;DHT22;48506;48.202;16.274;2023-05-10T02:02:03;11.30;91.30
49124;DHT22;48506;48.202;16.274;2023-05-10T02:04:30;11.20;91.50
49124;DHT22;48506;48.202;16.274;2023-05-10T02:06:57;11.20;91.60
49124;DHT22;48506;48.202;16.274;2023-05-10T02:09:25;11.20;91.70
49124;DHT22;48506;48.202;16.274;2023-05-10T02:11:54;11.20;91.80
49124;DHT22;48506;48.202;16.274;2023-05-10T02:14:22;11.20;91.80
49124;DHT22;48506;48.202;16.274;2023-05-10T02:16:51;11.20;91.90
49124;DHT22;48506;48.202;16.274;2023-05-10T02:19:19;11.20;92.00
49124;DHT22;48506;48.202;16.274;2023-05-10T02:21:46;11.20;92.00
49124;DHT22;48506;48.202;16.274;2023-05-10T02:24:13;11.20;92.00
49124;DHT22;48506;48.202;16.274;2023-05-10T02:26:42;11.20;92.10
49124;DHT22;48506;48.202;16.274;2023-05-10T02:29:09;11.10;92.20
49124;DHT22;48506;48.202;16.274;2023-05-10T02:31:38;11.10;92.30
49124;DHT22;48506;48.202;16.274;2023-05-10T02:34:06;11.00;92.40
49124;DHT22;48506;48.202;16.274;2023-05-10T02:36:33;11.00;92.50
49124;DHT22;48506;48.202;16.274;2023-05-10T02:39:01;11.00;92.60
49124;DHT22;48506;48.202;16.274;2023-05-10T02:41:28;11.00;92.70
49124;DHT22;48506;48.202;16.274;2023-05-10T02:43:59;11.00;92.70
49124;DHT22;48506;48.202;16.274;2023-05-10T02:46:28;10.90;92.80
49124;DHT22;48506;48.202;16.274;2023-05-10T02:48:55;10.90;92.90
49124;DHT22;48506;48.202;16.274;2023-05-10T02:51:24;10.90;93.00
49124;DHT22;48506;48.202;16.274;2023-05-10T02:53:53;10.90;93.10
49124;DHT22;48506;48.202;16.274;2023-05-10T02:56:28;10.80;93.10
49124;DHT22;48506;48.202;16.274;2023-05-10T02:58:55;10.90;93.30
49124;DHT22;48506;48.202;16.274;2023-05-10T03:01:21;10.80;93.30
49124;DHT22;48506;48.202;16.274;2023-05-10T03:03:47;10.80;93.40
49124;DHT22;48506;48.202;16.274;2023-05-10T03:06:13;10.90;93.50
49124;DHT22;48506;48.202;16.274;2023-05-10T03:08:40;10.90;93.60
49124;DHT22;48506;48.202;16.274;2023-05-10T03:11:47;10.80;93.60
49124;DHT22;48506;48.202;16.274;2023-05-10T03:17:29;10.80;93.70
49124;DHT22;48506;48.202;16.274;2023-05-10T03:20:03;10.80;93.70
49124;DHT22;48506;48.202;16.274;2023-05-10T03:22:36;10.80;93.80
49124;DHT22;48506;48.202;16.274;2023-05-10T03:25:06;10.80;93.80
49124;DHT22;48506;48.202;16.274;2023-05-10T03:27:32;10.80;93.90
49124;DHT22;48506;48.202;16.274;2023-05-10T03:30:00;10.80;93.90
49124;DHT22;48506;48.202;16.274;2023-05-10T03:32:29;10.80;94.00
49124;DHT22;48506;48.202;16.274;2023-05-10T03:34:57;10.80;93.90
49124;DHT22;48506;48.202;16.274;2023-05-10T03:37:23;10.90;94.00
49124;DHT22;48506;48.202;16.274;2023-05-10T03:39:49;10.80;94.00
49124;DHT22;48506;48.202;16.274;2023-05-10T03:42:15;10.80;94.10
49124;DHT22;48506;48.202;16.274;2023-05-10T03:44:43;10.80;94.00
49124;DHT22;48506;48.202;16.274;2023-05-10T03:47:09;10.80;94.10
49124;DHT22;48506;48.202;16.274;2023-05-10T03:49:35;10.80;94.10
49124;DHT22;48506;48.202;16.274;2023-05-10T03:52:01;10.80;94.10
49124;DHT22;48506;48.202;16.274;2023-05-10T03:54:27;10.80;94.30
49124;DHT22;48506;48.202;16.274;2023-05-10T03:56:53;10.80;94.40
49124;DHT22;48506;48.202;16.274;2023-05-10T03:59:19;10.80;94.30
49124;DHT22;48506;48.202;16.274;2023-05-10T04:01:44;10.80;94.40
49124;DHT22;48506;48.202;16.274;2023-05-10T04:04:10;10.90;94.50
49124;DHT22;48506;48.202;16.274;2023-05-10T04:06:38;10.90;94.50
49124;DHT22;48506;48.202;16.274;2023-05-10T04:09:04;10.90;94.40
49124;DHT22;48506;48.202;16.274;2023-05-10T04:11:30;11.00;94.40
49124;DHT22;48506;48.202;16.274;2023-05-10T04:13:56;11.00;94.30
49124;DHT22;48506;48.202;16.274;2023-05-10T04:16:23;10.90;94.40
49124;DHT22;48506;48.202;16.274;2023-05-10T04:18:49;11.00;94.50
49124;DHT22;48506;48.202;16.274;2023-05-10T04:21:16;10.90;94.60
49124;DHT22;48506;48.202;16.274;2023-05-10T04:23:42;11.00;94.60
49124;DHT22;48506;48.202;16.274;2023-05-10T04:26:08;10.90;94.60
49124;DHT22;48506;48.202;16.274;2023-05-10T04:28:33;10.90;94.70
49124;DHT22;48506;48.202;16.274;2023-05-10T04:31:07;11.00;94.80
49124;DHT22;48506;48.202;16.274;2023-05-10T04:33:36;11.00;94.80
49124;DHT22;48506;48.202;16.274;2023-05-10T04:36:03;11.10;94.80
49124;DHT22;48506;48.202;16.274;2023-05-10T04:38:29;11.10;94.70
49124;DHT22;48506;48.202;16.274;2023-05-10T04:41:07;11.20;94.80
49124;DHT22;48506;48.202;16.274;2023-05-10T04:43:35;11.30;94.70
49124;DHT22;48506;48.202;16.274;2023-05-10T04:46:01;11.30;94.60
49124;DHT22;48506;48.202;16.274;2023-05-10T04:48:29;11.40;94.50
49124;DHT22;48506;48.202;16.274;2023-05-10T04:50:55;11.50;94.40
49124;DHT22;48506;48.202;16.274;2023-05-10T04:53:22;11.50;94.40
49124;DHT22;48506;48.202;16.274;2023-05-10T04:55:48;11.60;94.30
49124;DHT22;48506;48.202;16.274;2023-05-10T04:58:15;11.70;94.10
49124;DHT22;48506;48.202;16.274;2023-05-10T05:00:41;11.80;94.10
49124;DHT22;48506;48.202;16.274;2023-05-10T05:03:08;11.80;93.80
49124;DHT22;48506;48.202;16.274;2023-05-10T05:05:35;12.00;93.90
49124;DHT22;48506;48.202;16.274;2023-05-10T05:08:01;12.10;93.60
49124;DHT22;48506;48.202;16.274;2023-05-10T05:10:28;12.20;93.40
49124;DHT22;48506;48.202;16.274;2023-05-10T05:12:56;12.30;93.40
49124;DHT22;48506;48.202;16.274;2023-05-10T05:15:21;12.40;93.20
49124;DHT22;48506;48.202;16.274;2023-05-10T05:17:48;12.50;92.90
49124;DHT22;48506;48.202;16.274;2023-05-10T05:20:14;12.60;93.00
49124;DHT22;48506;48.202;16.274;2023-05-10T05:22:40;12.70;92.70
49124;DHT22;48506;48.202;16.274;2023-05-10T05:25:06;12.90;92.60
49124;DHT22;48506;48.202;16.274;2023-05-10T05:27:32;13.00;92.30
49124;DHT22;48506;48.202;16.274;2023-05-10T05:29:59;13.10;92.20
49124;DHT22;48506;48.202;16.274;2023-05-10T05:32:25;13.30;92.20
49124;DHT22;48506;48.202;16.274;2023-05-10T05:34:51;13.40;91.90
49124;DHT22;48506;48.202;16.274;2023-05-10T05:37:19;13.50;91.80
49124;DHT22;48506;48.202;16.274;2023-05-10T05:39:46;13.70;91.80
49124;DHT22;48506;48.202;16.274;2023-05-10T05:42:13;13.80;91.50
49124;DHT22;48506;48.202;16.274;2023-05-10T05:44:44;13.90;91.50
49124;DHT22;48506;48.202;16.274;2023-05-10T05:47:10;14.10;91.20
49124;DHT22;48506;48.202;16.274;2023-05-10T05:49:36;14.30;91.00
49124;DHT22;48506;48.202;16.274;2023-05-10T05:52:04;14.50;91.00
49124;DHT22;48506;48.202;16.274;2023-05-10T05:54:31;14.60;90.50
49124;DHT22;48506;48.202;16.274;2023-05-10T05:56:58;14.80;90.40
49124;DHT22;48506;48.202;16.274;2023-05-10T05:59:25;14.90;90.20
49124;DHT22;48506;48.202;16.274;2023-05-10T06:01:51;15.00;90.20
49124;DHT22;48506;48.202;16.274;2023-05-10T06:04:18;15.20;89.70
49124;DHT22;48506;48.202;16.274;2023-05-10T06:06:44;15.30;89.40
49124;DHT22;48506;48.202;16.274;2023-05-10T06:09:11;15.50;89.10
49124;DHT22;48506;48.202;16.274;2023-05-10T06:11:37;15.60;88.80
49124;DHT22;48506;48.202;16.274;2023-05-10T06:14:04;15.80;89.00
49124;DHT22;48506;48.202;16.274;2023-05-10T06:16:34;16.00;88.40
49124;DHT22;48506;48.202;16.274;2023-05-10T06:19:00;16.20;87.20
49124;DHT22;48506;48.202;16.274;2023-05-10T06:21:26;16.30;85.80
49124;DHT22;48506;48.202;16.274;2023-05-10T06:23:53;16.40;85.20
49124;DHT22;48506;48.202;16.274;2023-05-10T06:26:20;16.50;84.10
49124;DHT22;48506;48.202;16.274;2023-05-10T06:28:48;16.60;83.70
49124;DHT22;48506;48.202;16.274;2023-05-10T06:31:14;16.70;84.10
49124;DHT22;48506;48.202;16.274;2023-05-10T06:33:41;16.80;82.70
49124;DHT22;48506;48.202;16.274;2023-05-10T06:36:08;16.90;82.60
49124;DHT22;48506;48.202;16.274;2023-05-10T06:38:34;17.10;81.70
49124;DHT22;48506;48.202;16.274;2023-05-10T06:41:02;17.20;80.80
49124;DHT22;48506;48.202;16.274;2023-05-10T06:43:28;17.20;80.50
49124;DHT22;48506;48.202;16.274;2023-05-10T06:45:54;17.30;79.80
49124;DHT22;48506;48.202;16.274;2023-05-10T06:48:21;17.40;79.50
49124;DHT22;48506;48.202;16.274;2023-05-10T06:50:47;17.50;78.50
49124;DHT22;48506;48.202;16.274;2023-05-10T06:53:13;17.40;77.90
49124;DHT22;48506;48.202;16.274;2023-05-10T06:55:40;17.50;78.10
49124;DHT22;48506;48.202;16.274;2023-05-10T06:58:05;17.60;78.20
49124;DHT22;48506;48.202;16.274;2023-05-10T07:00:32;17.60;77.00
49124;DHT22;48506;48.202;16.274;2023-05-10T07:02:59;17.60;77.40
49124;DHT22;48506;48.202;16.274;2023-05-10T07:05:25;17.60;77.50
49124;DHT22;48506;48.202;16.274;2023-05-10T07:07:53;17.80;78.70
49124;DHT22;48506;48.202;16.274;2023-05-10T07:10:20;17.80;76.50
49124;DHT22;48506;48.202;16.274;2023-05-10T07:12:46;17.80;77.80
49124;DHT22;48506;48.202;16.274;2023-05-10T07:15:12;17.80;79.00
49124;DHT22;48506;48.202;16.274;2023-05-10T07:17:38;17.80;78.30
49124;DHT22;48506;48.202;16.274;2023-05-10T07:20:05;17.80;80.10
49124;DHT22;48506;48.202;16.274;2023-05-10T07:22:32;17.70;81.10
49124;DHT22;48506;48.202;16.274;2023-05-10T07:24:59;17.60;78.60
49124;DHT22;48506;48.202;16.274;2023-05-10T07:27:25;17.60;80.80
49124;DHT22;48506;48.202;16.274;2023-05-10T07:29:51;17.60;80.50
49124;DHT22;48506;48.202;16.274;2023-05-10T07:32:17;17.70;78.50
49124;DHT22;48506;48.202;16.274;2023-05-10T07:34:44;17.80;77.70
49124;DHT22;48506;48.202;16.274;2023-05-10T07:37:10;17.80;77.40
49124;DHT22;48506;48.202;16.274;2023-05-10T07:39:37;17.90;79.40
49124;DHT22;48506;48.202;16.274;2023-05-10T07:42:03;18.10;79.30
49124;DHT22;48506;48.202;16.274;2023-05-10T07:44:29;18.20;77.80
49124;DHT22;48506;48.202;16.274;2023-05-10T07:46:55;18.40;79.10
49124;DHT22;48506;48.202;16.274;2023-05-10T07:49:21;18.50;77.50
49124;DHT22;48506;48.202;16.274;2023-05-10T07:51:49;18.70;80.50
49124;DHT22;48506;48.202;16.274;2023-05-10T07:54:16;18.90;78.40
49124;DHT22;48506;48.202;16.274;2023-05-10T07:56:43;19.10;78.50
49124;DHT22;48506;48.202;16.274;2023-05-10T07:59:17;19.10;77.40
49124;DHT22;48506;48.202;16.274;2023-05-10T08:01:43;19.30;76.60
49124;DHT22;48506;48.202;16.274;2023-05-10T08:04:10;19.40;77.00
49124;DHT22;48506;48.202;16.274;2023-05-10T08:06:37;19.40;76.10
49124;DHT22;48506;48.202;16.274;2023-05-10T08:09:04;19.40;76.70
49124;DHT22;48506;48.202;16.274;2023-05-10T08:11:31;19.70;76.90
49124;DHT22;48506;48.202;16.274;2023-05-10T08:13:58;19.90;76.40
49124;DHT22;48506;48.202;16.274;2023-05-10T08:16:25;19.90;75.50
49124;DHT22;48506;48.202;16.274;2023-05-10T08:18:51;19.80;76.30
49124;DHT22;48506;48.202;16.274;2023-05-10T08:21:18;19.80;75.30
49124;DHT22;48506;48.202;16.274;2023-05-10T08:23:44;19.60;76.10
49124;DHT22;48506;48.202;16.274;2023-05-10T08:26:12;19.50;75.10
49124;DHT22;48506;48.202;16.274;2023-05-10T08:28:38;19.30;75.30
49124;DHT22;48506;48.202;16.274;2023-05-10T08:31:04;19.20;76.10
49124;DHT22;48506;48.202;16.274;2023-05-10T08:33:30;19.30;74.70
49124;DHT22;48506;48.202;16.274;2023-05-10T08:35:56;19.30;75.40
49124;DHT22;48506;48.202;16.274;2023-05-10T08:38:23;19.40;75.40
49124;DHT22;48506;48.202;16.274;2023-05-10T08:40:54;19.80;75.00
49124;DHT22;48506;48.202;16.274;2023-05-10T08:43:27;20.20;75.40
49124;DHT22;48506;48.202;16.274;2023-05-10T08:46:00;20.60;74.10
49124;DHT22;48506;48.202;16.274;2023-05-10T08:48:30;21.10;75.00
49124;DHT22;48506;48.202;16.274;2023-05-10T08:50:58;21.30;71.40
49124;DHT22;48506;48.202;16.274;2023-05-10T08:53:27;21.20;70.60
49124;DHT22;48506;48.202;16.274;2023-05-10T08:55:55;20.90;71.30
49124;DHT22;48506;48.202;16.274;2023-05-10T08:58:21;20.80;72.00
49124;DHT22;48506;48.202;16.274;2023-05-10T09:00:49;20.50;72.00
49124;DHT22;48506;48.202;16.274;2023-05-10T09:03:19;20.40;71.30
49124;DHT22;48506;48.202;16.274;2023-05-10T09:05:45;20.20;71.70
49124;DHT22;48506;48.202;16.274;2023-05-10T09:08:13;20.10;74.60
49124;DHT22;48506;48.202;16.274;2023-05-10T09:10:43;20.10;73.50
49124;DHT22;48506;48.202;16.274;2023-05-10T09:13:11;19.90;73.30
49124;DHT22;48506;48.202;16.274;2023-05-10T09:15:38;19.80;72.70
49124;DHT22;48506;48.202;16.274;2023-05-10T09:18:04;19.70;73.20
49124;DHT22;48506;48.202;16.274;2023-05-10T09:20:30;19.60;73.90
49124;DHT22;48506;48.202;16.274;2023-05-10T09:22:57;19.60;74.40
49124;DHT22;48506;48.202;16.274;2023-05-10T09:25:23;19.90;73.30
49124;DHT22;48506;48.202;16.274;2023-05-10T09:27:49;20.20;74.20
49124;DHT22;48506;48.202;16.274;2023-05-10T09:30:18;20.60;71.60
49124;DHT22;48506;48.202;16.274;2023-05-10T09:32:50;21.10;72.50
49124;DHT22;48506;48.202;16.274;2023-05-10T09:35:19;21.50;71.80
49124;DHT22;48506;48.202;16.274;2023-05-10T09:37:49;21.60;70.10
49124;DHT22;48506;48.202;16.274;2023-05-10T09:40:20;21.30;69.80
49124;DHT22;48506;48.202;16.274;2023-05-10T09:45:22;20.50;69.90
49124;DHT22;48506;48.202;16.274;2023-05-10T09:47:48;20.30;70.90
49124;DHT22;48506;48.202;16.274;2023-05-10T09:50:15;20.10;71.40
49124;DHT22;48506;48.202;16.274;2023-05-10T09:52:55;20.10;70.90
49124;DHT22;48506;48.202;16.274;2023-05-10T09:58:05;20.50;71.60
49124;DHT22;48506;48.202;16.274;2023-05-10T10:00:37;21.10;69.50
49124;DHT22;48506;48.202;16.274;2023-05-10T10:03:04;21.40;68.70
49124;DHT22;48506;48.202;16.274;2023-05-10T10:05:35;21.80;69.10
49124;DHT22;48506;48.202;16.274;2023-05-10T10:08:05;22.10;68.30
49124;DHT22;48506;48.202;16.274;2023-05-10T10:10:32;22.40;67.00
49124;DHT22;48506;48.202;16.274;2023-05-10T10:12:59;22.50;66.00
49124;DHT22;48506;48.202;16.274;2023-05-10T10:15:26;22.70;67.30
49124;DHT22;48506;48.202;16.274;2023-05-10T10:17:53;23.00;67.80
49124;DHT22;48506;48.202;16.274;2023-05-10T10:20:21;23.40;65.90
49124;DHT22;48506;48.202;16.274;2023-05-10T10:22:48;23.50;63.50
49124;DHT22;48506;48.202;16.274;2023-05-10T10:25:16;23.20;65.50
49124;DHT22;48506;48.202;16.274;2023-05-10T10:36:08;22.60;65.20
49124;DHT22;48506;48.202;16.274;2023-05-10T10:41:32;22.70;63.80
49124;DHT22;48506;48.202;16.274;2023-05-10T10:44:33;23.10;63.50
49124;DHT22;48506;48.202;16.274;2023-05-10T10:49:26;24.00;63.60
49124;DHT22;48506;48.202;16.274;2023-05-10T10:57:27;23.30;61.50
49124;DHT22;48506;48.202;16.274;2023-05-10T11:03:03;23.30;64.00
49124;DHT22;48506;48.202;16.274;2023-05-10T11:08:14;23.70;60.70
49124;DHT22;48506;48.202;16.274;2023-05-10T11:10:53;23.70;59.80
49124;DHT22;48506;48.202;16.274;2023-05-10T11:13:43;23.90;61.20
49124;DHT22;48506;48.202;16.274;2023-05-10T11:16:21;24.40;60.10
49124;DHT22;48506;48.202;16.274;2023-05-10T11:19:03;24.20;59.30
49124;DHT22;48506;48.202;16.274;2023-05-10T11:21:33;24.20;59.70
49124;DHT22;48506;48.202;16.274;2023-05-10T11:24:01;24.30;60.30
49124;DHT22;48506;48.202;16.274;2023-05-10T11:26:35;24.60;59.20
49124;DHT22;48506;48.202;16.274;2023-05-10T11:29:03;24.70;59.30
49124;DHT22;48506;48.202;16.274;2023-05-10T11:31:30;24.80;59.30
49124;DHT22;48506;48.202;16.274;2023-05-10T11:33:59;24.70;58.30
49124;DHT22;48506;48.202;16.274;2023-05-10T11:36:32;24.50;59.40
49124;DHT22;48506;48.202;16.274;2023-05-10T11:38:58;24.40;59.50
49124;DHT22;48506;48.202;16.274;2023-05-10T11:41:24;24.40;59.20
49124;DHT22;48506;48.202;16.274;2023-05-10T11:43:52;24.40;58.90
49124;DHT22;48506;48.202;16.274;2023-05-10T11:46:20;24.50;59.70
49124;DHT22;48506;48.202;16.274;2023-05-10T11:48:51;24.60;59.80
49124;DHT22;48506;48.202;16.274;2023-05-10T11:51:20;24.70;56.90
49124;DHT22;48506;48.202;16.274;2023-05-10T11:53:46;24.60;56.70
49124;DHT22;48506;48.202;16.274;2023-05-10T11:56:12;24.60;58.80
49124;DHT22;48506;48.202;16.274;2023-05-10T11:58:39;24.50;57.00
49124;DHT22;48506;48.202;16.274;2023-05-10T12:01:07;24.30;57.40
49124;DHT22;48506;48.202;16.274;2023-05-10T12:03:35;24.40;58.20
49124;DHT22;48506;48.202;16.274;2023-05-10T12:06:02;24.40;58.80
49124;DHT22;48506;48.202;16.274;2023-05-10T12:08:30;24.40;57.50
49124;DHT22;48506;48.202;16.274;2023-05-10T12:11:07;24.30;57.20
49124;DHT22;48506;48.202;16.274;2023-05-10T12:13:39;24.20;57.10
49124;DHT22;48506;48.202;16.274;2023-05-10T12:16:21;24.00;57.50
49124;DHT22;48506;48.202;16.274;2023-05-10T12:18:58;23.50;58.40
49124;DHT22;48506;48.202;16.274;2023-05-10T12:21:26;23.40;58.20
49124;DHT22;48506;48.202;16.274;2023-05-10T12:23:58;23.10;58.80
49124;DHT22;48506;48.202;16.274;2023-05-10T12:26:25;23.00;59.90
49124;DHT22;48506;48.202;16.274;2023-05-10T12:28:54;23.00;59.70
49124;DHT22;48506;48.202;16.274;2023-05-10T12:31:20;23.00;60.80
49124;DHT22;48506;48.202;16.274;2023-05-10T12:33:47;23.10;60.50
49124;DHT22;48506;48.202;16.274;2023-05-10T12:36:16;23.30;60.10
49124;DHT22;48506;48.202;16.274;2023-05-10T12:38:45;23.30;60.40
49124;DHT22;48506;48.202;16.274;2023-05-10T12:41:16;23.20;60.20
49124;DHT22;48506;48.202;16.274;2023-05-10T12:43:44;23.20;60.10
49124;DHT22;48506;48.202;16.274;2023-05-10T12:46:13;23.30;60.00
49124;DHT22;48506;48.202;16.274;2023-05-10T12:48:41;23.30;59.70
49124;DHT22;48506;48.202;16.274;2023-05-10T12:51:08;23.20;59.30
49124;DHT22;48506;48.202;16.274;2023-05-10T12:53:37;23.30;61.10
49124;DHT22;48506;48.202;16.274;2023-05-10T12:56:03;23.20;58.70
49124;DHT22;48506;48.202;16.274;2023-05-10T12:58:29;22.90;59.60
49124;DHT22;48506;48.202;16.274;2023-05-10T13:00:58;22.70;60.10
49124;DHT22;48506;48.202;16.274;2023-05-10T13:03:26;22.50;60.10
49124;DHT22;48506;48.202;16.274;2023-05-10T13:05:51;22.50;60.30
49124;DHT22;48506;48.202;16.274;2023-05-10T13:08:17;22.70;62.10
49124;DHT22;48506;48.202;16.274;2023-05-10T13:10:45;23.10;60.70
49124;DHT22;48506;48.202;16.274;2023-05-10T13:13:11;23.10;59.20
49124;DHT22;48506;48.202;16.274;2023-05-10T13:15:38;22.90;59.50
49124;DHT22;48506;48.202;16.274;2023-05-10T13:18:04;22.70;58.70
49124;DHT22;48506;48.202;16.274;2023-05-10T13:20:30;22.60;60.80
49124;DHT22;48506;48.202;16.274;2023-05-10T13:22:56;22.70;60.20
49124;DHT22;48506;48.202;16.274;2023-05-10T13:25:22;22.80;60.50
49124;DHT22;48506;48.202;16.274;2023-05-10T13:27:48;22.80;59.70
49124;DHT22;48506;48.202;16.274;2023-05-10T13:30:14;22.70;60.30
49124;DHT22;48506;48.202;16.274;2023-05-10T13:32:40;22.60;61.40
49124;DHT22;48506;48.202;16.274;2023-05-10T13:35:08;22.50;61.20
49124;DHT22;48506;48.202;16.274;2023-05-10T13:37:34;22.70;60.40
49124;DHT22;48506;48.202;16.274;2023-05-10T13:40:03;22.90;60.10
49124;DHT22;48506;48.202;16.274;2023-05-10T13:42:30;22.80;59.40
49124;DHT22;48506;48.202;16.274;2023-05-10T13:44:58;22.80;59.50
49124;DHT22;48506;48.202;16.274;2023-05-10T13:47:24;22.80;59.20
49124;DHT22;48506;48.202;16.274;2023-05-10T13:49:51;22.70;60.00
49124;DHT22;48506;48.202;16.274;2023-05-10T13:52:17;22.60;60.30
49124;DHT22;48506;48.202;16.274;2023-05-10T13:54:44;22.50;61.30
49124;DHT22;48506;48.202;16.274;2023-05-10T13:57:10;22.50;60.40
49124;DHT22;48506;48.202;16.274;2023-05-10T13:59:40;22.60;61.20
49124;DHT22;48506;48.202;16.274;2023-05-10T14:02:07;22.80;60.90
49124;DHT22;48506;48.202;16.274;2023-05-10T14:04:34;22.70;60.10
49124;DHT22;48506;48.202;16.274;2023-05-10T14:07:01;22.50;59.60
49124;DHT22;48506;48.202;16.274;2023-05-10T14:09:28;22.40;60.90
49124;DHT22;48506;48.202;16.274;2023-05-10T14:11:54;22.40;60.50
49124;DHT22;48506;48.202;16.274;2023-05-10T14:14:23;22.60;60.00
49124;DHT22;48506;48.202;16.274;2023-05-10T14:16:49;22.40;59.30
49124;DHT22;48506;48.202;16.274;2023-05-10T14:19:15;22.20;60.50
49124;DHT22;48506;48.202;16.274;2023-05-10T14:21:41;22.40;60.70
49124;DHT22;48506;48.202;16.274;2023-05-10T14:24:09;22.50;59.00
49124;DHT22;48506;48.202;16.274;2023-05-10T14:26:36;22.60;59.40
49124;DHT22;48506;48.202;16.274;2023-05-10T14:29:02;22.50;59.00
49124;DHT22;48506;48.202;16.274;2023-05-10T14:31:28;22.30;58.90
49124;DHT22;48506;48.202;16.274;2023-05-10T14:33:57;22.10;59.20
49124;DHT22;48506;48.202;16.274;2023-05-10T14:36:24;22.10;60.10
49124;DHT22;48506;48.202;16.274;2023-05-10T14:38:52;22.20;59.80
49124;DHT22;48506;48.202;16.274;2023-05-10T14:41:18;22.10;59.00
49124;DHT22;48506;48.202;16.274;2023-05-10T14:43:44;22.10;59.10
49124;DHT22;48506;48.202;16.274;2023-05-10T14:46:11;21.90;59.40
49124;DHT22;48506;48.202;16.274;2023-05-10T14:48:38;21.80;58.60
49124;DHT22;48506;48.202;16.274;2023-05-10T14:51:04;21.80;59.80
49124;DHT22;48506;48.202;16.274;2023-05-10T14:53:30;21.80;59.60
49124;DHT22;48506;48.202;16.274;2023-05-10T14:55:56;22.00;58.90
49124;DHT22;48506;48.202;16.274;2023-05-10T14:58:23;22.20;59.20
49124;DHT22;48506;48.202;16.274;2023-05-10T15:00:48;22.30;60.20
49124;DHT22;48506;48.202;16.274;2023-05-10T15:03:14;22.40;58.20
49124;DHT22;48506;48.202;16.274;2023-05-10T15:05:40;22.20;57.60
49124;DHT22;48506;48.202;16.274;2023-05-10T15:08:07;22.10;58.40
49124;DHT22;48506;48.202;16.274;2023-05-10T15:10:33;21.90;59.50
49124;DHT22;48506;48.202;16.274;2023-05-10T15:12:59;21.90;58.70
49124;DHT22;48506;48.202;16.274;2023-05-10T15:15:25;21.80;58.80
49124;DHT22;48506;48.202;16.274;2023-05-10T15:17:52;21.70;58.40
49124;DHT22;48506;48.202;16.274;2023-05-10T15:20:18;21.60;59.50
49124;DHT22;48506;48.202;16.274;2023-05-10T15:22:44;21.40;58.80
49124;DHT22;48506;48.202;16.274;2023-05-10T15:25:11;21.20;59.70
49124;DHT22;48506;48.202;16.274;2023-05-10T15:27:37;21.30;59.40
49124;DHT22;48506;48.202;16.274;2023-05-10T15:30:04;21.50;59.30
49124;DHT22;48506;48.202;16.274;2023-05-10T15:32:30;21.50;58.40
49124;DHT22;48506;48.202;16.274;2023-05-10T15:34:57;21.70;60.20
49124;DHT22;48506;48.202;16.274;2023-05-10T15:37:24;21.70;58.90
49124;DHT22;48506;48.202;16.274;2023-05-10T15:39:51;21.80;58.70
49124;DHT22;48506;48.202;16.274;2023-05-10T15:42:17;21.60;58.30
49124;DHT22;48506;48.202;16.274;2023-05-10T15:44:43;21.50;59.30
49124;DHT22;48506;48.202;16.274;2023-05-10T15:47:10;21.50;59.80
49124;DHT22;48506;48.202;16.274;2023-05-10T15:49:36;21.50;59.70
49124;DHT22;48506;48.202;16.274;2023-05-10T15:52:03;21.50;60.20
49124;DHT22;48506;48.202;16.274;2023-05-10T15:54:30;21.40;60.30
49124;DHT22;48506;48.202;16.274;2023-05-10T15:56:56;21.20;61.40
49124;DHT22;48506;48.202;16.274;2023-05-10T15:59:23;21.20;61.50
49124;DHT22;48506;48.202;16.274;2023-05-10T16:01:50;21.20;61.50
49124;DHT22;48506;48.202;16.274;2023-05-10T16:04:16;21.20;61.50
49124;DHT22;48506;48.202;16.274;2023-05-10T16:06:43;21.20;63.60